sensor_id;sensor_type;location;lat;lon;timestamp;temperature;humidity
11107;DHT22;5607;48.302;14.294;2023-03-11T00:01:53;6.90;1.00
11107;DHT22;5607;48.302;14.294;2023-03-11T00:04:40;6.80;99.90
11107;DHT22;5607;48.302;14.294;2023-03-11T00:07:26;6.90;99.90
11107;DHT22;5607;48.302;14.294;2023-03-11T00:10:14;6.90;99.90
11107;DHT22;5607;48.302;14.294;2023-03-11T00:13:03;7.00;99.90
11107;DHT22;5607;48.302;14.294;2023-03-11T00:15:52;7.00;99.90
11107;DHT22;5607;48.302;14.294;2023-03-11T00:18:43;7.00;99.90
11107;DHT22;5607;48.302;14.294;2023-03-11T00:21:29;7.00;99.90
11107;DHT22;5607;48.302;14.294;2023-03-11T00:24:16;7.00;99.90
11107;DHT22;5607;48.302;14.294;2023-03-11T00:27:02;7.00;99.90
11107;DHT22;5607;48.302;14.294;2023-03-11T00:29:49;7.10;99.90
11107;DHT22;5607;48.302;14.294;2023-03-11T00:32:36;6.80;99.90
11107;DHT22;5607;48.302;14.294;2023-03-11T00:35:26;6.50;99.90
11107;DHT22;5607;48.302;14.294;2023-03-11T00:38:16;6.40;99.90
11107;DHT22;5607;48.302;14.294;2023-03-11T00:41:02;6.20;99.90
11107;DHT22;5607;48.302;14.294;2023-03-11T00:43:49;6.00;99.90
11107;DHT22;5607;48.302;14.294;2023-03-11T00:46:36;5.90;99.90
11107;DHT22;5607;48.302;14.294;2023-03-11T00:49:23;5.90;99.90
11107;DHT22;5607;48.302;14.294;2023-03-11T00:52:11;5.80;99.90
11107;DHT22;5607;48.302;14.294;2023-03-11T00:54:58;5.70;99.90
11107;DHT22;5607;48.302;14.294;2023-03-11T00:57:45;5.80;99.90
11107;DHT22;5607;48.302;14.294;2023-03-11T01:00:31;5.60;99.90
11107;DHT22;5607;48.302;14.294;2023-03-11T01:03:18;5.60;99.90
11107;DHT22;5607;48.302;14.294;2023-03-11T01:06:05;5.60;99.90
11107;DHT22;5607;48.302;14.294;2023-03-11T01:08:52;5.60;99.90
11107;DHT22;5607;48.302;14.294;2023-03-11T01:11:38;5.50;99.90
11107;DHT22;5607;48.302;14.294;2023-03-11T01:14:25;5.50;99.90
11107;DHT22;5607;48.302;14.294;2023-03-11T01:17:11;5.60;99.90
11107;DHT22;5607;48.302;14.294;2023-03-11T01:19:58;5.60;99.90
11107;DHT22;5607;48.302;14.294;2023-03-11T01:22:45;5.40;99.90
11107;DHT22;5607;48.302;14.294;2023-03-11T01:25:31;5.40;99.90
11107;DHT22;5607;48.302;14.294;2023-03-11T01:28:18;5.50;99.90
11107;DHT22;5607;48.302;14.294;2023-03-11T01:31:04;5.50;99.90
11107;DHT22;5607;48.302;14.294;2023-03-11T01:33:51;5.50;99.90
11107;DHT22;5607;48.302;14.294;2023-03-11T01:36:37;5.30;99.90
11107;DHT22;5607;48.302;14.294;2023-03-11T01:39:24;5.30;99.90
11107;DHT22;5607;48.302;14.294;2023-03-11T01:42:10;5.40;99.90
11107;DHT22;5607;48.302;14.294;2023-03-11T01:44:57;5.50;99.90
11107;DHT22;5607;48.302;14.294;2023-03-11T01:47:44;5.60;99.90
11107;DHT22;5607;48.302;14.294;2023-03-11T01:50:32;5.70;99.90
11107;DHT22;5607;48.302;14.294;2023-03-11T01:53:21;5.50;99.90
11107;DHT22;5607;48.302;14.294;2023-03-11T01:56:09;5.50;99.90
11107;DHT22;5607;48.302;14.294;2023-03-11T01:58:56;5.30;99.90
11107;DHT22;5607;48.302;14.294;2023-03-11T02:01:48;5.10;99.90
11107;DHT22;5607;48.302;14.294;2023-03-11T02:04:42;5.10;99.90
11107;DHT22;5607;48.302;14.294;2023-03-11T02:07:28;5.10;99.90
11107;DHT22;5607;48.302;14.294;2023-03-11T02:10:15;5.10;99.90
11107;DHT22;5607;48.302;14.294;2023-03-11T02:13:03;5.10;99.90
11107;DHT22;5607;48.302;14.294;2023-03-11T02:15:49;5.10;99.90
11107;DHT22;5607;48.302;14.294;2023-03-11T02:18:37;5.10;99.90
11107;DHT22;5607;48.302;14.294;2023-03-11T02:21:24;5.10;99.90
11107;DHT22;5607;48.302;14.294;2023-03-11T02:24:30;5.00;99.90
11107;DHT22;5607;48.302;14.294;2023-03-11T02:27:45;4.90;99.90
11107;DHT22;5607;48.302;14.294;2023-03-11T02:30:34;4.90;99.90
11107;DHT22;5607;48.302;14.294;2023-03-11T02:33:25;4.80;99.90
11107;DHT22;5607;48.302;14.294;2023-03-11T02:42:39;4.70;99.90
11107;DHT22;5607;48.302;14.294;2023-03-11T02:45:25;4.70;99.90
11107;DHT22;5607;48.302;14.294;2023-03-11T02:48:14;4.60;99.90
11107;DHT22;5607;48.302;14.294;2023-03-11T02:51:05;4.70;99.90
11107;DHT22;5607;48.302;14.294;2023-03-11T02:53:53;4.60;99.90
11107;DHT22;5607;48.302;14.294;2023-03-11T02:56:43;4.60;99.90
11107;DHT22;5607;48.302;14.294;2023-03-11T02:59:30;4.50;99.90
11107;DHT22;5607;48.302;14.294;2023-03-11T03:02:16;4.60;99.90
11107;DHT22;5607;48.302;14.294;2023-03-11T03:05:04;4.50;99.90
11107;DHT22;5607;48.302;14.294;2023-03-11T03:07:51;4.50;99.90
11107;DHT22;5607;48.302;14.294;2023-03-11T03:10:38;4.50;99.90
11107;DHT22;5607;48.302;14.294;2023-03-11T03:13:25;4.50;99.90
11107;DHT22;5607;48.302;14.294;2023-03-11T03:16:12;4.50;99.90
11107;DHT22;5607;48.302;14.294;2023-03-11T03:18:59;4.50;99.90
11107;DHT22;5607;48.302;14.294;2023-03-11T03:21:45;4.50;99.90
11107;DHT22;5607;48.302;14.294;2023-03-11T03:24:32;4.30;99.90
11107;DHT22;5607;48.302;14.294;2023-03-11T03:27:19;4.40;99.90
11107;DHT22;5607;48.302;14.294;2023-03-11T03:30:06;4.40;99.90
11107;DHT22;5607;48.302;14.294;2023-03-11T03:32:54;4.30;99.90
11107;DHT22;5607;48.302;14.294;2023-03-11T03:35:42;4.30;99.90
11107;DHT22;5607;48.302;14.294;2023-03-11T03:38:30;4.30;99.90
11107;DHT22;5607;48.302;14.294;2023-03-11T03:41:17;4.30;99.90
11107;DHT22;5607;48.302;14.294;2023-03-11T03:44:03;4.40;99.90
11107;DHT22;5607;48.302;14.294;2023-03-11T03:46:50;4.40;99.90
11107;DHT22;5607;48.302;14.294;2023-03-11T03:49:37;4.40;99.90
11107;DHT22;5607;48.302;14.294;2023-03-11T03:52:24;4.40;99.90
11107;DHT22;5607;48.302;14.294;2023-03-11T03:55:10;4.30;99.90
11107;DHT22;5607;48.302;14.294;2023-03-11T03:57:57;4.30;99.90
11107;DHT22;5607;48.302;14.294;2023-03-11T04:00:43;4.30;99.90
11107;DHT22;5607;48.302;14.294;2023-03-11T04:03:30;4.30;99.90
11107;DHT22;5607;48.302;14.294;2023-03-11T04:06:18;4.30;99.90
11107;DHT22;5607;48.302;14.294;2023-03-11T04:09:08;4.30;99.90
11107;DHT22;5607;48.302;14.294;2023-03-11T04:11:56;4.30;99.90
11107;DHT22;5607;48.302;14.294;2023-03-11T04:14:43;4.30;99.90
11107;DHT22;5607;48.302;14.294;2023-03-11T04:17:29;4.30;99.90
11107;DHT22;5607;48.302;14.294;2023-03-11T04:20:16;4.30;99.90
11107;DHT22;5607;48.302;14.294;2023-03-11T04:23:02;4.20;99.90
11107;DHT22;5607;48.302;14.294;2023-03-11T04:25:49;4.30;99.90
11107;DHT22;5607;48.302;14.294;2023-03-11T04:28:36;4.20;99.90
11107;DHT22;5607;48.302;14.294;2023-03-11T04:31:22;4.20;99.90
11107;DHT22;5607;48.302;14.294;2023-03-11T04:34:09;4.20;99.90
11107;DHT22;5607;48.302;14.294;2023-03-11T04:36:55;4.20;99.90
11107;DHT22;5607;48.302;14.294;2023-03-11T04:39:42;4.20;99.90
11107;DHT22;5607;48.302;14.294;2023-03-11T04:42:29;4.10;99.90
11107;DHT22;5607;48.302;14.294;2023-03-11T04:45:15;4.00;99.90
11107;DHT22;5607;48.302;14.294;2023-03-11T04:48:03;4.00;99.90
11107;DHT22;5607;48.302;14.294;2023-03-11T04:50:50;4.00;99.90
11107;DHT22;5607;48.302;14.294;2023-03-11T04:53:36;4.00;99.90
11107;DHT22;5607;48.302;14.294;2023-03-11T04:56:23;4.00;99.90
11107;DHT22;5607;48.302;14.294;2023-03-11T04:59:10;4.00;99.90
11107;DHT22;5607;48.302;14.294;2023-03-11T05:01:56;4.00;99.90
11107;DHT22;5607;48.302;14.294;2023-03-11T05:04:43;4.00;99.90
11107;DHT22;5607;48.302;14.294;2023-03-11T05:07:30;3.90;99.90
11107;DHT22;5607;48.302;14.294;2023-03-11T05:10:17;3.90;99.90
11107;DHT22;5607;48.302;14.294;2023-03-11T05:13:09;4.00;99.90
11107;DHT22;5607;48.302;14.294;2023-03-11T05:15:56;3.90;99.90
11107;DHT22;5607;48.302;14.294;2023-03-11T05:18:42;3.90;99.90
11107;DHT22;5607;48.302;14.294;2023-03-11T05:21:29;3.90;99.90
11107;DHT22;5607;48.302;14.294;2023-03-11T05:24:16;3.90;99.90
11107;DHT22;5607;48.302;14.294;2023-03-11T05:27:02;4.00;99.90
11107;DHT22;5607;48.302;14.294;2023-03-11T05:29:49;4.00;99.90
11107;DHT22;5607;48.302;14.294;2023-03-11T05:32:36;4.00;99.90
11107;DHT22;5607;48.302;14.294;2023-03-11T05:35:22;4.00;99.90
11107;DHT22;5607;48.302;14.294;2023-03-11T05:38:09;4.00;99.90
11107;DHT22;5607;48.302;14.294;2023-03-11T05:40:55;4.00;99.90
11107;DHT22;5607;48.302;14.294;2023-03-11T05:43:42;4.10;99.90
11107;DHT22;5607;48.302;14.294;2023-03-11T05:46:30;4.10;99.90
11107;DHT22;5607;48.302;14.294;2023-03-11T05:49:17;4.10;99.90
11107;DHT22;5607;48.302;14.294;2023-03-11T05:52:06;4.00;99.90
11107;DHT22;5607;48.302;14.294;2023-03-11T05:54:52;4.00;99.90
11107;DHT22;5607;48.302;14.294;2023-03-11T05:57:39;4.00;99.90
11107;DHT22;5607;48.302;14.294;2023-03-11T06:00:26;4.10;99.90
11107;DHT22;5607;48.302;14.294;2023-03-11T06:03:14;4.00;99.90
11107;DHT22;5607;48.302;14.294;2023-03-11T06:06:01;4.00;99.90
11107;DHT22;5607;48.302;14.294;2023-03-11T06:08:47;4.00;99.90
11107;DHT22;5607;48.302;14.294;2023-03-11T06:11:35;4.00;99.90
11107;DHT22;5607;48.302;14.294;2023-03-11T06:14:21;4.00;99.90
11107;DHT22;5607;48.302;14.294;2023-03-11T06:17:08;3.90;99.90
11107;DHT22;5607;48.302;14.294;2023-03-11T06:19:55;3.80;99.90
11107;DHT22;5607;48.302;14.294;2023-03-11T06:22:41;3.90;99.90
11107;DHT22;5607;48.302;14.294;2023-03-11T06:25:28;3.90;99.90
11107;DHT22;5607;48.302;14.294;2023-03-11T06:28:14;4.10;99.90
11107;DHT22;5607;48.302;14.294;2023-03-11T06:31:10;4.10;99.90
11107;DHT22;5607;48.302;14.294;2023-03-11T06:34:10;4.00;99.90
11107;DHT22;5607;48.302;14.294;2023-03-11T06:36:57;4.10;99.90
11107;DHT22;5607;48.302;14.294;2023-03-11T06:39:45;4.00;99.90
11107;DHT22;5607;48.302;14.294;2023-03-11T06:42:31;4.00;99.90
11107;DHT22;5607;48.302;14.294;2023-03-11T06:45:18;4.00;99.90
11107;DHT22;5607;48.302;14.294;2023-03-11T06:48:05;3.90;99.90
11107;DHT22;5607;48.302;14.294;2023-03-11T06:53:41;3.90;99.90
11107;DHT22;5607;48.302;14.294;2023-03-11T06:56:28;4.10;99.90
11107;DHT22;5607;48.302;14.294;2023-03-11T06:59:15;4.10;99.90
11107;DHT22;5607;48.302;14.294;2023-03-11T07:02:02;4.00;99.90
11107;DHT22;5607;48.302;14.294;2023-03-11T07:04:50;4.10;99.90
11107;DHT22;5607;48.302;14.294;2023-03-11T07:07:37;4.20;99.90
11107;DHT22;5607;48.302;14.294;2023-03-11T07:10:23;4.30;99.90
11107;DHT22;5607;48.302;14.294;2023-03-11T07:13:10;4.50;99.90
11107;DHT22;5607;48.302;14.294;2023-03-11T07:16:00;4.60;99.90
11107;DHT22;5607;48.302;14.294;2023-03-11T07:18:50;4.60;99.90
11107;DHT22;5607;48.302;14.294;2023-03-11T07:21:38;4.50;99.90
11107;DHT22;5607;48.302;14.294;2023-03-11T07:24:24;4.60;99.90
11107;DHT22;5607;48.302;14.294;2023-03-11T07:27:11;4.60;99.90
11107;DHT22;5607;48.302;14.294;2023-03-11T07:29:59;4.80;99.90
11107;DHT22;5607;48.302;14.294;2023-03-11T07:32:46;4.70;99.90
11107;DHT22;5607;48.302;14.294;2023-03-11T07:35:34;4.90;99.90
11107;DHT22;5607;48.302;14.294;2023-03-11T07:38:20;5.00;99.90
11107;DHT22;5607;48.302;14.294;2023-03-11T07:41:07;4.70;99.90
11107;DHT22;5607;48.302;14.294;2023-03-11T07:43:56;4.50;99.90
11107;DHT22;5607;48.302;14.294;2023-03-11T07:46:47;4.60;99.90
11107;DHT22;5607;48.302;14.294;2023-03-11T07:49:33;4.70;99.90
11107;DHT22;5607;48.302;14.294;2023-03-11T07:52:21;4.70;99.90
11107;DHT22;5607;48.302;14.294;2023-03-11T07:55:07;4.70;99.90
11107;DHT22;5607;48.302;14.294;2023-03-11T07:57:54;4.80;99.90
11107;DHT22;5607;48.302;14.294;2023-03-11T08:00:41;4.70;99.90
11107;DHT22;5607;48.302;14.294;2023-03-11T08:03:27;4.80;99.90
11107;DHT22;5607;48.302;14.294;2023-03-11T08:06:15;4.90;99.90
11107;DHT22;5607;48.302;14.294;2023-03-11T08:09:04;4.80;99.90
11107;DHT22;5607;48.302;14.294;2023-03-11T08:11:53;4.90;99.90
11107;DHT22;5607;48.302;14.294;2023-03-11T08:14:39;4.90;99.90
11107;DHT22;5607;48.302;14.294;2023-03-11T08:17:26;4.60;99.90
11107;DHT22;5607;48.302;14.294;2023-03-11T08:20:13;4.80;99.90
11107;DHT22;5607;48.302;14.294;2023-03-11T08:22:59;4.90;99.90
11107;DHT22;5607;48.302;14.294;2023-03-11T08:25:46;5.00;99.90
11107;DHT22;5607;48.302;14.294;2023-03-11T08:28:32;4.90;99.90
11107;DHT22;5607;48.302;14.294;2023-03-11T08:31:24;5.10;99.90
11107;DHT22;5607;48.302;14.294;2023-03-11T08:34:13;5.00;99.90
11107;DHT22;5607;48.302;14.294;2023-03-11T08:37:00;4.90;99.90
11107;DHT22;5607;48.302;14.294;2023-03-11T08:39:47;5.30;99.90
11107;DHT22;5607;48.302;14.294;2023-03-11T08:42:33;5.80;99.90
11107;DHT22;5607;48.302;14.294;2023-03-11T08:45:20;5.60;99.90
11107;DHT22;5607;48.302;14.294;2023-03-11T08:48:08;5.30;99.90
11107;DHT22;5607;48.302;14.294;2023-03-11T08:50:56;5.40;99.90
11107;DHT22;5607;48.302;14.294;2023-03-11T08:53:43;5.50;99.90
11107;DHT22;5607;48.302;14.294;2023-03-11T08:56:30;5.30;99.90
11107;DHT22;5607;48.302;14.294;2023-03-11T08:59:16;5.50;99.90
11107;DHT22;5607;48.302;14.294;2023-03-11T09:02:03;5.80;99.90
11107;DHT22;5607;48.302;14.294;2023-03-11T09:04:50;6.10;99.90
11107;DHT22;5607;48.302;14.294;2023-03-11T09:07:36;6.40;99.90
11107;DHT22;5607;48.302;14.294;2023-03-11T09:10:23;6.40;99.90
11107;DHT22;5607;48.302;14.294;2023-03-11T09:13:09;6.40;99.90
11107;DHT22;5607;48.302;14.294;2023-03-11T09:15:56;6.30;99.90
11107;DHT22;5607;48.302;14.294;2023-03-11T09:18:43;5.90;99.90
11107;DHT22;5607;48.302;14.294;2023-03-11T09:21:29;5.80;99.90
11107;DHT22;5607;48.302;14.294;2023-03-11T09:24:16;6.00;99.90
11107;DHT22;5607;48.302;14.294;2023-03-11T09:27:03;5.90;99.90
11107;DHT22;5607;48.302;14.294;2023-03-11T09:29:49;5.30;99.90
11107;DHT22;5607;48.302;14.294;2023-03-11T09:32:36;5.40;99.90
11107;DHT22;5607;48.302;14.294;2023-03-11T09:35:23;5.40;99.90
11107;DHT22;5607;48.302;14.294;2023-03-11T09:38:10;5.20;99.90
11107;DHT22;5607;48.302;14.294;2023-03-11T09:40:58;5.30;99.90
11107;DHT22;5607;48.302;14.294;2023-03-11T09:46:58;5.40;99.90
11107;DHT22;5607;48.302;14.294;2023-03-11T09:49:56;5.70;99.90
11107;DHT22;5607;48.302;14.294;2023-03-11T09:53:17;5.90;99.90
11107;DHT22;5607;48.302;14.294;2023-03-11T09:56:23;5.80;99.90
11107;DHT22;5607;48.302;14.294;2023-03-11T09:59:16;5.40;99.90
11107;DHT22;5607;48.302;14.294;2023-03-11T10:02:09;5.60;99.90
11107;DHT22;5607;48.302;14.294;2023-03-11T10:05:05;6.20;99.90
11107;DHT22;5607;48.302;14.294;2023-03-11T10:08:27;6.10;99.90
11107;DHT22;5607;48.302;14.294;2023-03-11T10:14:39;6.10;99.90
11107;DHT22;5607;48.302;14.294;2023-03-11T10:27:25;6.10;99.90
11107;DHT22;5607;48.302;14.294;2023-03-11T10:33:34;6.30;99.90
11107;DHT22;5607;48.302;14.294;2023-03-11T10:36:28;6.60;99.90
11107;DHT22;5607;48.302;14.294;2023-03-11T10:39:24;6.30;99.90
11107;DHT22;5607;48.302;14.294;2023-03-11T10:42:12;6.30;99.90
11107;DHT22;5607;48.302;14.294;2023-03-11T10:45:09;6.50;99.90
11107;DHT22;5607;48.302;14.294;2023-03-11T10:47:59;6.50;99.90
11107;DHT22;5607;48.302;14.294;2023-03-11T10:53:54;6.50;99.90
11107;DHT22;5607;48.302;14.294;2023-03-11T10:56:43;6.10;99.90
11107;DHT22;5607;48.302;14.294;2023-03-11T10:59:46;6.00;99.90
11107;DHT22;5607;48.302;14.294;2023-03-11T11:02:39;6.30;99.90
11107;DHT22;5607;48.302;14.294;2023-03-11T11:05:34;6.60;99.90
11107;DHT22;5607;48.302;14.294;2023-03-11T11:08:21;6.90;99.90
11107;DHT22;5607;48.302;14.294;2023-03-11T11:11:10;6.80;99.90
11107;DHT22;5607;48.302;14.294;2023-03-11T11:14:07;7.00;99.90
11107;DHT22;5607;48.302;14.294;2023-03-11T11:16:56;6.90;99.90
11107;DHT22;5607;48.302;14.294;2023-03-11T11:19:44;6.80;99.90
11107;DHT22;5607;48.302;14.294;2023-03-11T11:22:32;6.50;99.90
11107;DHT22;5607;48.302;14.294;2023-03-11T11:25:26;6.80;99.90
11107;DHT22;5607;48.302;14.294;2023-03-11T11:28:18;6.80;99.90
11107;DHT22;5607;48.302;14.294;2023-03-11T11:31:18;6.70;99.90
11107;DHT22;5607;48.302;14.294;2023-03-11T11:37:15;7.00;99.90
11107;DHT22;5607;48.302;14.294;2023-03-11T11:40:04;6.70;99.90
11107;DHT22;5607;48.302;14.294;2023-03-11T11:45:52;6.70;99.90
11107;DHT22;5607;48.302;14.294;2023-03-11T11:52:07;6.10;99.90
11107;DHT22;5607;48.302;14.294;2023-03-11T11:58:20;6.10;99.90
11107;DHT22;5607;48.302;14.294;2023-03-11T12:10:32;5.60;99.90
11107;DHT22;5607;48.302;14.294;2023-03-11T12:22:47;5.20;99.90
11107;DHT22;5607;48.302;14.294;2023-03-11T12:28:57;5.30;99.90
11107;DHT22;5607;48.302;14.294;2023-03-11T12:31:50;5.30;99.90
11107;DHT22;5607;48.302;14.294;2023-03-11T12:35:00;5.30;99.90
11107;DHT22;5607;48.302;14.294;2023-03-11T12:37:56;5.70;99.90
11107;DHT22;5607;48.302;14.294;2023-03-11T12:47:01;5.40;99.90
11107;DHT22;5607;48.302;14.294;2023-03-11T12:53:42;6.20;99.90
11107;DHT22;5607;48.302;14.294;2023-03-11T12:56:37;6.30;99.90
11107;DHT22;5607;48.302;14.294;2023-03-11T13:09:11;5.80;99.90
11107;DHT22;5607;48.302;14.294;2023-03-11T13:12:00;5.80;99.90
11107;DHT22;5607;48.302;14.294;2023-03-11T13:14:48;5.90;99.90
11107;DHT22;5607;48.302;14.294;2023-03-11T13:18:13;6.20;99.90
11107;DHT22;5607;48.302;14.294;2023-03-11T13:27:12;6.60;99.90
11107;DHT22;5607;48.302;14.294;2023-03-11T13:30:19;6.70;99.90
11107;DHT22;5607;48.302;14.294;2023-03-11T13:36:28;6.00;99.90
11107;DHT22;5607;48.302;14.294;2023-03-11T13:39:26;5.70;99.90
11107;DHT22;5607;48.302;14.294;2023-03-11T13:42:34;5.90;99.90
11107;DHT22;5607;48.302;14.294;2023-03-11T13:45:30;5.90;99.90
11107;DHT22;5607;48.302;14.294;2023-03-11T13:48:31;6.00;99.90
11107;DHT22;5607;48.302;14.294;2023-03-11T13:51:44;5.90;99.90
11107;DHT22;5607;48.302;14.294;2023-03-11T13:54:54;5.90;99.90
11107;DHT22;5607;48.302;14.294;2023-03-11T13:58:12;5.60;99.90
11107;DHT22;5607;48.302;14.294;2023-03-11T14:01:01;5.80;99.90
11107;DHT22;5607;48.302;14.294;2023-03-11T14:03:48;6.00;99.90
11107;DHT22;5607;48.302;14.294;2023-03-11T14:06:35;6.00;99.90
11107;DHT22;5607;48.302;14.294;2023-03-11T14:09:22;5.90;99.90
11107;DHT22;5607;48.302;14.294;2023-03-11T14:12:10;5.90;99.90
11107;DHT22;5607;48.302;14.294;2023-03-11T14:14:59;6.10;99.90
11107;DHT22;5607;48.302;14.294;2023-03-11T14:17:51;6.10;99.90
11107;DHT22;5607;48.302;14.294;2023-03-11T14:20:39;5.80;99.90
11107;DHT22;5607;48.302;14.294;2023-03-11T14:23:27;5.80;99.90
11107;DHT22;5607;48.302;14.294;2023-03-11T14:26:19;5.80;99.90
11107;DHT22;5607;48.302;14.294;2023-03-11T14:29:08;6.10;99.90
11107;DHT22;5607;48.302;14.294;2023-03-11T14:31:58;6.10;99.90
11107;DHT22;5607;48.302;14.294;2023-03-11T14:34:45;6.00;99.90
11107;DHT22;5607;48.302;14.294;2023-03-11T14:37:32;5.80;99.90
11107;DHT22;5607;48.302;14.294;2023-03-11T14:40:21;5.90;99.90
11107;DHT22;5607;48.302;14.294;2023-03-11T14:43:10;6.10;99.90
11107;DHT22;5607;48.302;14.294;2023-03-11T14:45:57;6.30;99.90
11107;DHT22;5607;48.302;14.294;2023-03-11T14:48:45;6.30;99.90
11107;DHT22;5607;48.302;14.294;2023-03-11T14:51:32;6.20;99.90
11107;DHT22;5607;48.302;14.294;2023-03-11T14:54:22;5.80;99.90
11107;DHT22;5607;48.302;14.294;2023-03-11T14:57:17;6.10;99.90
11107;DHT22;5607;48.302;14.294;2023-03-11T15:00:11;6.30;99.90
11107;DHT22;5607;48.302;14.294;2023-03-11T15:03:30;6.40;99.90
11107;DHT22;5607;48.302;14.294;2023-03-11T15:06:27;6.40;99.90
11107;DHT22;5607;48.302;14.294;2023-03-11T15:09:16;6.10;99.90
11107;DHT22;5607;48.302;14.294;2023-03-11T15:12:04;5.80;99.90
11107;DHT22;5607;48.302;14.294;2023-03-11T15:14:53;5.80;99.90
11107;DHT22;5607;48.302;14.294;2023-03-11T15:17:39;6.00;99.90
11107;DHT22;5607;48.302;14.294;2023-03-11T15:20:38;5.90;99.90
11107;DHT22;5607;48.302;14.294;2023-03-11T15:23:25;6.00;99.90
11107;DHT22;5607;48.302;14.294;2023-03-11T15:26:30;6.30;99.90
11107;DHT22;5607;48.302;14.294;2023-03-11T15:29:19;6.40;99.90
11107;DHT22;5607;48.302;14.294;2023-03-11T15:35:24;6.20;99.90
11107;DHT22;5607;48.302;14.294;2023-03-11T15:38:23;6.30;99.90
11107;DHT22;5607;48.302;14.294;2023-03-11T15:41:11;6.40;99.90
11107;DHT22;5607;48.302;14.294;2023-03-11T15:43:57;6.40;99.90
11107;DHT22;5607;48.302;14.294;2023-03-11T15:46:48;6.40;99.90
11107;DHT22;5607;48.302;14.294;2023-03-11T15:49:34;6.50;99.90
11107;DHT22;5607;48.302;14.294;2023-03-11T15:52:21;6.40;99.90
11107;DHT22;5607;48.302;14.294;2023-03-11T15:55:09;6.30;99.90
11107;DHT22;5607;48.302;14.294;2023-03-11T15:57:59;6.40;99.90
11107;DHT22;5607;48.302;14.294;2023-03-11T16:00:52;6.40;99.90
11107;DHT22;5607;48.302;14.294;2023-03-11T16:03:43;6.40;99.90
11107;DHT22;5607;48.302;14.294;2023-03-11T16:06:30;6.40;99.90
11107;DHT22;5607;48.302;14.294;2023-03-11T16:09:16;6.20;99.90
11107;DHT22;5607;48.302;14.294;2023-03-11T16:12:17;5.90;99.90
11107;DHT22;5607;48.302;14.294;2023-03-11T16:15:09;5.80;99.90
11107;DHT22;5607;48.302;14.294;2023-03-11T16:18:05;5.70;99.90
11107;DHT22;5607;48.302;14.294;2023-03-11T16:20:53;5.50;99.90
11107;DHT22;5607;48.302;14.294;2023-03-11T16:23:40;5.60;99.90
11107;DHT22;5607;48.302;14.294;2023-03-11T16:26:27;5.60;99.90
11107;DHT22;5607;48.302;14.294;2023-03-11T16:29:15;5.40;99.90
11107;DHT22;5607;48.302;14.294;2023-03-11T16:32:02;5.40;99.90
11107;DHT22;5607;48.302;14.294;2023-03-11T16:34:48;5.30;99.90
11107;DHT22;5607;48.302;14.294;2023-03-11T16:37:35;5.20;99.90
11107;DHT22;5607;48.302;14.294;2023-03-11T16:40:22;5.20;99.90
11107;DHT22;5607;48.302;14.294;2023-03-11T16:43:11;5.00;99.90
11107;DHT22;5607;48.302;14.294;2023-03-11T16:46:01;4.90;99.90
11107;DHT22;5607;48.302;14.294;2023-03-11T16:48:47;4.90;99.90
11107;DHT22;5607;48.302;14.294;2023-03-11T16:51:34;5.00;99.90
11107;DHT22;5607;48.302;14.294;2023-03-11T16:54:21;4.90;99.90
11107;DHT22;5607;48.302;14.294;2023-03-11T16:57:07;4.90;99.90
11107;DHT22;5607;48.302;14.294;2023-03-11T16:59:54;4.90;99.90
11107;DHT22;5607;48.302;14.294;2023-03-11T17:02:40;4.80;99.90
11107;DHT22;5607;48.302;14.294;2023-03-11T17:05:27;4.70;99.90
11107;DHT22;5607;48.302;14.294;2023-03-11T17:08:13;4.70;99.90
11107;DHT22;5607;48.302;14.294;2023-03-11T17:11:03;4.70;99.90
11107;DHT22;5607;48.302;14.294;2023-03-11T17:13:49;4.70;99.90
11107;DHT22;5607;48.302;14.294;2023-03-11T17:16:37;4.70;99.90
11107;DHT22;5607;48.302;14.294;2023-03-11T17:19:24;4.70;99.90
11107;DHT22;5607;48.302;14.294;2023-03-11T17:22:11;4.80;99.90
11107;DHT22;5607;48.302;14.294;2023-03-11T17:24:58;4.70;99.90
11107;DHT22;5607;48.302;14.294;2023-03-11T17:27:44;4.70;99.90
11107;DHT22;5607;48.302;14.294;2023-03-11T17:30:31;4.70;99.90
11107;DHT22;5607;48.302;14.294;2023-03-11T17:33:18;4.90;99.90
11107;DHT22;5607;48.302;14.294;2023-03-11T17:36:05;5.00;99.90
11107;DHT22;5607;48.302;14.294;2023-03-11T17:38:53;5.30;99.90
11107;DHT22;5607;48.302;14.294;2023-03-11T17:41:40;5.40;99.90
11107;DHT22;5607;48.302;14.294;2023-03-11T17:44:27;5.50;99.90
11107;DHT22;5607;48.302;14.294;2023-03-11T17:47:13;5.50;99.90
11107;DHT22;5607;48.302;14.294;2023-03-11T17:50:00;5.30;99.90
11107;DHT22;5607;48.302;14.294;2023-03-11T17:52:48;5.30;99.90
11107;DHT22;5607;48.302;14.294;2023-03-11T17:55:37;5.40;99.90
11107;DHT22;5607;48.302;14.294;2023-03-11T17:58:25;5.30;99.90
11107;DHT22;5607;48.302;14.294;2023-03-11T18:01:20;5.20;99.90
11107;DHT22;5607;48.302;14.294;2023-03-11T18:04:11;5.20;99.90
11107;DHT22;5607;48.302;14.294;2023-03-11T18:06:57;5.10;99.90
11107;DHT22;5607;48.302;14.294;2023-03-11T18:09:44;5.00;99.90
11107;DHT22;5607;48.302;14.294;2023-03-11T18:12:31;5.00;99.90
11107;DHT22;5607;48.302;14.294;2023-03-11T18:15:19;5.10;99.90
11107;DHT22;5607;48.302;14.294;2023-03-11T18:18:07;5.10;99.90
11107;DHT22;5607;48.302;14.294;2023-03-11T18:20:54;5.10;99.90
11107;DHT22;5607;48.302;14.294;2023-03-11T18:23:45;5.10;99.90
11107;DHT22;5607;48.302;14.294;2023-03-11T18:26:33;5.00;99.90
11107;DHT22;5607;48.302;14.294;2023-03-11T18:29:19;5.00;99.90
11107;DHT22;5607;48.302;14.294;2023-03-11T18:32:06;4.80;99.90
11107;DHT22;5607;48.302;14.294;2023-03-11T18:34:53;4.60;99.90
11107;DHT22;5607;48.302;14.294;2023-03-11T18:40:44;4.60;99.90
11107;DHT22;5607;48.302;14.294;2023-03-11T18:43:31;4.60;99.90
11107;DHT22;5607;48.302;14.294;2023-03-11T18:46:18;4.60;99.90
11107;DHT22;5607;48.302;14.294;2023-03-11T18:49:04;4.70;99.90
11107;DHT22;5607;48.302;14.294;2023-03-11T18:51:51;4.90;99.90
11107;DHT22;5607;48.302;14.294;2023-03-11T18:54:37;5.00;99.90
11107;DHT22;5607;48.302;14.294;2023-03-11T18:57:24;5.00;99.90
11107;DHT22;5607;48.302;14.294;2023-03-11T19:00:11;5.00;99.90
11107;DHT22;5607;48.302;14.294;2023-03-11T19:02:58;5.00;99.90
11107;DHT22;5607;48.302;14.294;2023-03-11T19:05:45;5.00;99.90
11107;DHT22;5607;48.302;14.294;2023-03-11T19:08:37;5.00;99.90
11107;DHT22;5607;48.302;14.294;2023-03-11T19:11:24;5.00;99.90
11107;DHT22;5607;48.302;14.294;2023-03-11T19:14:11;5.10;99.90
11107;DHT22;5607;48.302;14.294;2023-03-11T19:16:58;5.20;99.90
11107;DHT22;5607;48.302;14.294;2023-03-11T19:19:44;5.20;99.90
11107;DHT22;5607;48.302;14.294;2023-03-11T19:22:31;5.20;99.90
11107;DHT22;5607;48.302;14.294;2023-03-11T19:25:17;5.10;99.90
11107;DHT22;5607;48.302;14.294;2023-03-11T19:28:06;5.10;99.90
11107;DHT22;5607;48.302;14.294;2023-03-11T19:30:53;5.10;99.90
11107;DHT22;5607;48.302;14.294;2023-03-11T19:33:42;5.20;99.90
11107;DHT22;5607;48.302;14.294;2023-03-11T19:36:32;5.20;99.90
11107;DHT22;5607;48.302;14.294;2023-03-11T19:39:18;5.10;99.90
11107;DHT22;5607;48.302;14.294;2023-03-11T19:42:05;5.10;99.90
11107;DHT22;5607;48.302;14.294;2023-03-11T19:44:51;5.00;99.90
11107;DHT22;5607;48.302;14.294;2023-03-11T19:47:39;5.00;99.90